Humidity-temperature Sensor

Selected Measurement Type: Air Temperature

 
Air Temperature [°C]     6 entries per hour
Showing data from 12/1/2014 (00:00:00 Z) to 11/28/2014 (00:01:00 Z)
Previous Next [ Day | 3-Days | 7-Days ]
First Last
Prev [ Day | 3-Days | 7-Days ] Next
First Last

Start Time:     :
End Time:     :     
Time (in GMT) :00 :50 :40 :30 :20 :10
Previous Next [ Day | 3-Days | 7-Days ]
First Last
Prev [ Day | 3-Days | 7-Days ] Next
First Last


123 => good data
MM => data is determined as missing
-- => data not received/configured
Back to Top Back to Top
12/1/2014 00:00 to 23:10 22.08 22.15 22.09 22.10 22.06 22.08
11/30/2014 23:00 to 22:10 22.09 22.09 22.01 22.10 22.08 22.05
11/30/2014 22:00 to 21:10 22.03 22.03 22.02 22.06 22.05 22.13
11/30/2014 21:00 to 20:10 22.28 22.25 22.32 22.30 22.27 22.24
11/30/2014 20:00 to 19:10 22.21 22.13 22.04 22.05 22.04 21.96
11/30/2014 19:00 to 18:10 21.92 21.97 21.95 21.86 21.80 21.81
11/30/2014 18:00 to 17:10 21.78 21.81 21.77 21.79 21.69 21.80
11/30/2014 17:00 to 16:10 21.71 21.74 21.69 21.76 21.75 21.81
11/30/2014 16:00 to 15:10 21.83 21.78 21.66 21.62 21.65 21.72
11/30/2014 15:00 to 14:10 21.72 21.75 21.92 21.86 21.84 21.88
11/30/2014 14:00 to 13:10 21.78 21.83 21.84 21.80 21.89 21.77
11/30/2014 13:00 to 12:10 21.77 21.67 21.64 21.47 21.38 21.32
11/30/2014 12:00 to 11:10 21.39 21.27 21.29 21.27 21.30 21.25
11/30/2014 11:00 to 10:10 21.36 21.27 21.29 21.43 21.33 21.32
11/30/2014 10:00 to 9:10 21.43 21.45 21.36 21.46 21.44 21.61
11/30/2014 09:00 to 8:10 21.53 21.63 21.45 21.36 21.43 21.41
11/30/2014 08:00 to 7:10 21.46 21.04 21.14 21.30 21.34 21.31
11/30/2014 07:00 to 6:10 21.41 21.44 21.45 21.43 21.44 21.41
11/30/2014 06:00 to 5:10 21.44 21.48 21.42 21.45 21.45 21.43
11/30/2014 05:00 to 4:10 21.43 21.34 21.41 21.51 21.54 21.55
11/30/2014 04:00 to 3:10 21.50 21.52 21.49 21.58 21.51 21.52
11/30/2014 03:00 to 2:10 21.60 21.56 21.61 21.65 21.65 21.57
11/30/2014 02:00 to 1:10 21.64 21.62 21.67 21.65 21.70 21.61
11/30/2014 01:00 to 0:10 21.67 21.64 21.70 21.72 21.67 21.83
11/30/2014 00:00 to 23:10 21.83 22.01 22.06 22.14 22.25 22.27
11/29/2014 23:00 to 22:10 22.26 22.34 22.38 22.32 22.33 22.26
11/29/2014 22:00 to 21:10 22.17 22.25 22.31 22.22 22.30 22.22
11/29/2014 21:00 to 20:10 22.07 22.17 22.00 22.01 22.00 22.05
11/29/2014 20:00 to 19:10 21.97 21.92 22.01 21.89 21.96 21.98
11/29/2014 19:00 to 18:10 21.90 21.92 21.95 21.90 21.90 21.90
11/29/2014 18:00 to 17:10 21.95 21.93 21.95 21.92 21.97 21.93
11/29/2014 17:00 to 16:10 21.99 21.95 22.00 22.01 22.02 22.01
11/29/2014 16:00 to 15:10 22.03 22.07 22.01 22.09 21.99 21.96
11/29/2014 15:00 to 14:10 21.98 21.95 21.87 21.88 21.80 21.74
11/29/2014 14:00 to 13:10 21.79 21.80 21.80 21.81 21.72 21.73
11/29/2014 13:00 to 12:10 21.73 21.63 21.67 21.69 21.63 21.67
11/29/2014 12:00 to 11:10 21.68 21.61 21.73 21.69 21.69 21.67
11/29/2014 11:00 to 10:10 21.73 21.72 21.68 21.66 21.61 21.78
11/29/2014 10:00 to 9:10 21.76 21.68 21.64 21.67 21.61 21.56
11/29/2014 09:00 to 8:10 21.82 21.66 21.71 21.71 21.61 21.65
11/29/2014 08:00 to 7:10 21.66 21.65 21.69 21.68 21.68 21.65
11/29/2014 07:00 to 6:10 21.74 21.64 21.69 21.65 21.73 21.74
11/29/2014 06:00 to 5:10 21.72 21.73 21.71 21.71 21.74 21.76
11/29/2014 05:00 to 4:10 21.67 21.80 21.77 21.76 21.76 21.81
11/29/2014 04:00 to 3:10 21.81 21.79 21.77 21.84 21.86 21.84
11/29/2014 03:00 to 2:10 21.86 21.82 21.83 21.83 21.90 21.86
11/29/2014 02:00 to 1:10 21.81 21.83 21.80 21.80 21.84 21.82
11/29/2014 01:00 to 0:10 21.82 21.85 21.95 21.92 21.90 21.93
11/29/2014 00:00 to 23:10 22.04 22.14 22.28 22.25 22.29 22.21
11/28/2014 23:00 to 22:10 22.06 22.20 22.20 22.22 22.31 22.30
11/28/2014 22:00 to 21:10 22.30 22.25 22.19 22.17 22.12 22.33
11/28/2014 21:00 to 20:10 22.16 22.26 22.23 22.18 22.18 22.20
11/28/2014 20:00 to 19:10 22.05 22.15 22.13 22.15 22.10 22.00
11/28/2014 19:00 to 18:10 22.00 21.94 22.04 22.14 22.12 22.13
11/28/2014 18:00 to 17:10 22.18 22.16 21.93 22.00 22.02 21.99
11/28/2014 17:00 to 16:10 22.04 22.04 22.01 22.01 21.93 21.86
11/28/2014 16:00 to 15:10 22.06 21.99 21.83 21.84 22.05 22.00
11/28/2014 15:00 to 14:10 22.08 22.17 22.03 22.06 22.06 22.05
11/28/2014 14:00 to 13:10 22.07 22.03 21.84 21.62 21.52 21.61
11/28/2014 13:00 to 12:10 21.53 21.67 21.46 21.49 21.41 21.46
11/28/2014 12:00 to 11:10 21.38 21.40 21.39 21.36 21.34 21.28
11/28/2014 11:00 to 10:10 21.37 21.42 21.38 21.37 21.33 21.36
11/28/2014 10:00 to 9:10 21.38 21.36 21.30 21.32 21.46 21.35
11/28/2014 09:00 to 8:10 21.40 21.31 21.30 21.35 21.33 21.40
11/28/2014 08:00 to 7:10 21.36 21.42 21.46 21.47 21.33 21.39
11/28/2014 07:00 to 6:10 21.46 21.40 21.47 21.60 21.59 21.52
11/28/2014 06:00 to 5:10 21.58 21.54 21.58 21.62 21.71 21.69
11/28/2014 05:00 to 4:10 21.69 21.64 21.70 21.75 21.70 21.68
11/28/2014 04:00 to 3:10 21.75 21.74 21.74 21.80 21.70 21.78
11/28/2014 03:00 to 2:10 21.91 21.89 21.83 21.88 21.84 21.83
11/28/2014 02:00 to 1:10 21.75 21.97 21.82 21.85 21.85 21.77
11/28/2014 01:00 to 0:10 21.82 21.84 21.85 21.90 21.89 21.86